createdAt,value
2017-11-28T00:01:05.988Z,99621.95
2017-11-28T00:03:32.158Z,99622.09
2017-11-28T00:05:58.445Z,99622.59
2017-11-28T00:08:24.609Z,99620.95
2017-11-28T00:10:50.791Z,99619.53
2017-11-28T00:13:17.001Z,99623.17
2017-11-28T00:15:43.216Z,99631.28
2017-11-28T00:18:09.396Z,99629.22
2017-11-28T00:20:35.623Z,99629.53
2017-11-28T00:23:01.801Z,99623.17
2017-11-28T00:25:28.004Z,99626.66
2017-11-28T00:27:54.184Z,99631.36
2017-11-28T00:30:20.462Z,99631.50
2017-11-28T00:32:46.660Z,99636.96
2017-11-28T00:35:12.826Z,99632.02
2017-11-28T00:37:39.047Z,99629.78
2017-11-28T00:40:05.439Z,99629.93
2017-11-28T00:42:31.626Z,99629.13
2017-11-28T00:44:57.875Z,99632.58
2017-11-28T00:47:24.039Z,99636.22
2017-11-28T00:49:50.233Z,99632.42
2017-11-28T00:52:16.455Z,99633.56
2017-11-28T00:54:42.609Z,99636.06
2017-11-28T00:57:08.787Z,99627.95
2017-11-28T00:59:35.011Z,99622.81
2017-11-28T01:02:01.188Z,99625.78
2017-11-28T01:04:27.423Z,99625.14
2017-11-28T01:06:53.675Z,99623.88
2017-11-28T01:09:19.985Z,99627.20
2017-11-28T01:11:46.243Z,99617.30
2017-11-28T01:14:12.516Z,99630.26
2017-11-28T01:16:38.738Z,99632.65
2017-11-28T01:19:04.973Z,99627.06
2017-11-28T01:21:31.232Z,99619.36
2017-11-28T01:23:57.461Z,99619.30
2017-11-28T01:26:23.687Z,99622.50
2017-11-28T01:28:50.020Z,99617.95
2017-11-28T01:31:16.280Z,99617.73
2017-11-28T01:33:42.508Z,99611.87
2017-11-28T01:36:08.780Z,99618.55
2017-11-28T01:38:35.014Z,99617.06
2017-11-28T01:41:01.252Z,99605.58
2017-11-28T01:43:27.515Z,99604.49
2017-11-28T01:45:53.747Z,99607.05
2017-11-28T01:48:19.979Z,99615.97
2017-11-28T01:50:46.240Z,99615.41
2017-11-28T01:53:12.478Z,99618.96
2017-11-28T01:55:38.719Z,99617.61
2017-11-28T01:58:04.985Z,99614.06
2017-11-28T02:00:31.200Z,99611.58
2017-11-28T02:02:57.636Z,99613.37
2017-11-28T02:05:23.924Z,99617.17
2017-11-28T02:07:50.163Z,99612.94
2017-11-28T02:10:16.409Z,99612.62
2017-11-28T02:12:42.687Z,99610.70
2017-11-28T02:15:08.909Z,99615.73
2017-11-28T02:17:35.143Z,99616.38
2017-11-28T02:20:01.404Z,99620.67
2017-11-28T02:22:27.645Z,99625.29
2017-11-28T02:24:53.885Z,99622.09
2017-11-28T02:27:20.152Z,99609.70
2017-11-28T02:29:46.382Z,99628.20
2017-11-28T02:32:12.613Z,99626.97
2017-11-28T02:34:38.894Z,99627.44
2017-11-28T02:37:05.131Z,99623.47
2017-11-28T02:39:31.352Z,99629.58
2017-11-28T02:41:57.735Z,99631.97
2017-11-28T02:44:23.960Z,99639.44
2017-11-28T02:46:50.197Z,99629.70
2017-11-28T02:49:16.470Z,99633.67
2017-11-28T02:51:42.710Z,99630.81
2017-11-28T02:54:08.957Z,99632.00
2017-11-28T02:56:35.238Z,99631.97
2017-11-28T02:59:01.473Z,99629.81
2017-11-28T03:01:27.731Z,99634.94
2017-11-28T03:03:54.025Z,99628.69
2017-11-28T03:06:20.263Z,99631.46
2017-11-28T03:08:46.502Z,99622.52
2017-11-28T03:11:12.768Z,99626.34
2017-11-28T03:13:39.132Z,99630.41
2017-11-28T03:16:05.361Z,99626.44
2017-11-28T03:18:31.917Z,99632.70
2017-11-28T03:20:58.381Z,99629.38
2017-11-28T03:23:24.837Z,99637.31
2017-11-28T03:25:51.109Z,99631.92
2017-11-28T03:28:17.335Z,99628.74
2017-11-28T03:30:43.556Z,99629.16
2017-11-28T03:33:10.117Z,99631.64
2017-11-28T03:35:36.335Z,99631.11
2017-11-28T03:38:03.398Z,99632.25
2017-11-28T03:40:29.664Z,99625.13
2017-11-28T03:42:55.898Z,99639.60
2017-11-28T03:45:22.123Z,99634.39
2017-11-28T03:47:48.384Z,99634.63
2017-11-28T03:50:14.756Z,99643.75
2017-11-28T03:52:40.997Z,99640.55
2017-11-28T03:55:07.276Z,99639.19
2017-11-28T03:57:33.501Z,99643.58
2017-11-28T03:59:59.724Z,99638.78
2017-11-28T04:02:25.988Z,99632.84
2017-11-28T04:04:52.212Z,99647.45
2017-11-28T04:07:18.500Z,99641.25
2017-11-28T04:09:44.782Z,99643.30
2017-11-28T04:12:11.009Z,99647.72
2017-11-28T04:14:37.221Z,99651.42
2017-11-28T04:17:03.494Z,99645.72
2017-11-28T04:19:29.728Z,99651.02
2017-11-28T04:21:55.982Z,99658.55
2017-11-28T04:24:22.356Z,99658.87
2017-11-28T04:26:48.595Z,99664.16
2017-11-28T04:29:14.834Z,99674.34
2017-11-28T04:31:41.106Z,99679.91
2017-11-28T04:34:07.350Z,99683.22
2017-11-28T04:36:33.725Z,99670.17
2017-11-28T04:39:00.359Z,99676.66
2017-11-28T04:41:26.886Z,99676.40
2017-11-28T04:43:53.373Z,99674.58
2017-11-28T04:46:19.646Z,99670.84
2017-11-28T04:48:45.898Z,99665.63
2017-11-28T04:51:12.139Z,99669.05
2017-11-28T04:53:38.434Z,99665.66
2017-11-28T04:56:04.684Z,99669.69
2017-11-28T04:58:30.917Z,99673.98
2017-11-28T05:00:57.193Z,99671.56
2017-11-28T05:03:23.432Z,99670.19
2017-11-28T05:05:49.668Z,99671.34
2017-11-28T05:08:15.960Z,99670.06
2017-11-28T05:10:42.204Z,99669.97
2017-11-28T05:13:08.445Z,99668.23
2017-11-28T05:15:34.699Z,99667.33
2017-11-28T05:18:00.929Z,99664.99
2017-11-28T05:20:27.162Z,99664.50
2017-11-28T05:22:53.493Z,99666.41
2017-11-28T05:25:19.724Z,99672.16
2017-11-28T05:27:45.960Z,99676.09
2017-11-28T05:30:12.238Z,99672.30
2017-11-28T05:32:38.496Z,99662.03
2017-11-28T05:35:04.739Z,99660.61
2017-11-28T05:37:31.031Z,99659.97
2017-11-28T05:39:57.264Z,99670.80
2017-11-28T05:42:23.487Z,99669.70
2017-11-28T05:44:49.757Z,99671.08
2017-11-28T05:47:15.981Z,99667.73
2017-11-28T05:49:42.227Z,99664.85
2017-11-28T05:52:08.496Z,99666.17
2017-11-28T05:54:34.731Z,99669.02
2017-11-28T05:57:01.087Z,99668.15
2017-11-28T05:59:27.319Z,99665.77
2017-11-28T06:01:53.652Z,99660.88
2017-11-28T06:04:19.898Z,99667.50
2017-11-28T06:06:46.393Z,99662.66
2017-11-28T06:09:12.834Z,99665.63
2017-11-28T06:11:39.251Z,99663.44
2017-11-28T06:14:05.939Z,99671.20
2017-11-28T06:16:32.559Z,99670.56
2017-11-28T06:18:58.808Z,99675.81
2017-11-28T06:21:25.069Z,99679.61
2017-11-28T06:23:51.322Z,99680.14
2017-11-28T06:26:17.599Z,99681.73
2017-11-28T06:28:43.883Z,99683.70
2017-11-28T06:31:10.156Z,99691.92
2017-11-28T06:33:36.776Z,99694.46
2017-11-28T06:36:03.430Z,99697.25
2017-11-28T06:38:29.680Z,99693.92
2017-11-28T06:40:55.914Z,99695.10
2017-11-28T06:43:22.184Z,99704.92
2017-11-28T06:45:48.404Z,99703.20
2017-11-28T06:48:14.645Z,99701.78
2017-11-28T06:50:40.924Z,99706.33
2017-11-28T06:53:07.175Z,99702.66
2017-11-28T06:55:33.413Z,99704.34
2017-11-28T06:57:59.700Z,99705.48
2017-11-28T07:00:25.920Z,99707.59
2017-11-28T07:02:52.158Z,99711.31
2017-11-28T07:05:18.425Z,99713.09
2017-11-28T07:07:44.656Z,99712.78
2017-11-28T07:10:10.889Z,99718.22
2017-11-28T07:12:37.193Z,99714.21
2017-11-28T07:15:03.451Z,99712.10
2017-11-28T07:17:29.703Z,99710.91
2017-11-28T07:19:56.080Z,99704.48
2017-11-28T07:22:22.307Z,99711.97
2017-11-28T07:24:48.565Z,99712.99
2017-11-28T07:27:14.849Z,99714.62
2017-11-28T07:29:41.081Z,99712.14
2017-11-28T07:32:07.327Z,99716.45
2017-11-28T07:34:33.743Z,99714.99
2017-11-28T07:36:59.987Z,99713.06
2017-11-28T07:39:26.224Z,99721.03
2017-11-28T07:41:52.506Z,99723.41
2017-11-28T07:44:18.752Z,99719.78
2017-11-28T07:46:44.984Z,99719.77
2017-11-28T07:49:11.265Z,99714.31
2017-11-28T07:51:37.501Z,99722.92
2017-11-28T07:54:03.722Z,99720.63
2017-11-28T07:56:29.986Z,99726.53
2017-11-28T07:58:56.211Z,99722.66
2017-11-28T08:01:22.444Z,99725.44
2017-11-28T08:03:48.712Z,99720.82
2017-11-28T08:06:14.950Z,99725.97
2017-11-28T08:08:41.354Z,99711.61
2017-11-28T08:11:07.619Z,99724.65
2017-11-28T08:13:33.852Z,99723.56
2017-11-28T08:16:00.100Z,99725.72
2017-11-28T08:18:26.365Z,99732.35
2017-11-28T08:20:52.588Z,99726.80
2017-11-28T08:23:18.824Z,99731.19
2017-11-28T08:25:45.101Z,99737.32
2017-11-28T08:28:11.341Z,99736.31
2017-11-28T08:30:37.565Z,99736.52
2017-11-28T08:33:03.814Z,99736.05
2017-11-28T08:35:30.034Z,99734.25
2017-11-28T08:37:56.255Z,99734.97
2017-11-28T08:40:22.533Z,99737.23
2017-11-28T08:42:48.768Z,99740.68
2017-11-28T08:45:14.998Z,99734.85
2017-11-28T08:47:41.293Z,99731.90
2017-11-28T08:50:07.546Z,99727.53
2017-11-28T08:52:33.776Z,99738.19
2017-11-28T08:55:00.043Z,99728.16
2017-11-28T08:57:26.277Z,99733.73
2017-11-28T08:59:52.525Z,99726.41
2017-11-28T09:02:18.824Z,99729.66
2017-11-28T09:04:45.065Z,99727.73
2017-11-28T09:07:11.292Z,99724.65
2017-11-28T09:09:37.550Z,99723.04
2017-11-28T09:12:03.789Z,99724.69
2017-11-28T09:14:30.040Z,99717.02
2017-11-28T09:16:56.299Z,99712.94
2017-11-28T09:19:22.546Z,99715.58
2017-11-28T09:21:48.767Z,99716.33
2017-11-28T09:24:15.074Z,99711.39
2017-11-28T09:26:41.286Z,99714.06
2017-11-28T09:29:07.515Z,99708.34
2017-11-28T09:31:33.775Z,99705.58
2017-11-28T09:34:00.016Z,99700.53
2017-11-28T09:36:26.273Z,99700.78
2017-11-28T09:38:52.548Z,99696.23
2017-11-28T09:41:18.778Z,99695.72
2017-11-28T09:43:45.004Z,99706.60
2017-11-28T09:46:11.303Z,99703.84
2017-11-28T09:48:37.543Z,99703.03
2017-11-28T09:51:03.786Z,99700.80
2017-11-28T09:53:30.052Z,99702.14
2017-11-28T09:55:56.275Z,99690.36
2017-11-28T09:58:22.546Z,99693.23
2017-11-28T10:00:48.811Z,99694.66
2017-11-28T10:03:15.047Z,99690.45
2017-11-28T10:05:41.313Z,99685.98
2017-11-28T10:08:07.679Z,99685.48
2017-11-28T10:10:33.925Z,99683.02
2017-11-28T10:13:00.160Z,99685.66
2017-11-28T10:15:26.785Z,99676.34
2017-11-28T10:17:53.263Z,99679.06
2017-11-28T10:20:19.705Z,99684.00
2017-11-28T10:22:46.220Z,99679.81
2017-11-28T10:25:12.714Z,99672.53
2017-11-28T10:27:39.342Z,99673.30
2017-11-28T10:30:05.880Z,99673.78
2017-11-28T10:32:32.388Z,99664.77
2017-11-28T10:34:58.806Z,99665.02
2017-11-28T10:37:25.498Z,99671.98
2017-11-28T10:39:52.114Z,99661.19
2017-11-28T10:42:18.534Z,99665.28
2017-11-28T10:44:45.208Z,99658.61
2017-11-28T10:47:11.713Z,99662.52
2017-11-28T10:49:38.136Z,99667.89
2017-11-28T10:52:04.571Z,99672.19
2017-11-28T10:54:31.014Z,99671.06
2017-11-28T10:56:57.578Z,99666.49
2017-11-28T10:59:24.194Z,99663.89
2017-11-28T11:01:50.646Z,99666.77
2017-11-28T11:04:17.285Z,99673.81
2017-11-28T11:06:43.823Z,99668.61
2017-11-28T11:09:10.056Z,99674.81
2017-11-28T11:11:36.580Z,99676.83
2017-11-28T11:14:03.074Z,99669.34
2017-11-28T11:16:29.664Z,99668.05
2017-11-28T11:18:56.301Z,99674.35
2017-11-28T11:21:22.923Z,99672.94
2017-11-28T11:23:49.579Z,99672.37
2017-11-28T11:26:16.083Z,99673.78
2017-11-28T11:28:42.473Z,99674.39
2017-11-28T11:31:08.940Z,99674.69
2017-11-28T11:33:35.516Z,99667.97
2017-11-28T11:36:02.125Z,99658.34
2017-11-28T11:38:28.567Z,99668.82
2017-11-28T11:40:55.220Z,99664.73
2017-11-28T11:43:21.847Z,99667.55
2017-11-28T11:45:48.500Z,99664.95
2017-11-28T11:48:14.933Z,99665.98
2017-11-28T11:50:41.422Z,99664.05
2017-11-28T11:53:07.867Z,99663.39
2017-11-28T11:55:34.801Z,99663.85
2017-11-28T11:58:01.488Z,99657.91
2017-11-28T12:00:28.128Z,99657.04
2017-11-28T12:02:54.608Z,99657.34
2017-11-28T12:05:21.056Z,99664.45
2017-11-28T12:07:47.632Z,99658.39
2017-11-28T12:10:14.249Z,99660.27
2017-11-28T12:12:40.908Z,99658.31
2017-11-28T12:15:07.419Z,99654.14
2017-11-28T12:17:33.834Z,99650.16
2017-11-28T12:20:00.275Z,99644.51
2017-11-28T12:22:26.691Z,99645.41
2017-11-28T12:24:53.280Z,99643.25
2017-11-28T12:27:19.699Z,99652.13
2017-11-28T12:29:46.361Z,99634.22
2017-11-28T12:32:12.836Z,99655.66
2017-11-28T12:34:39.423Z,99656.38
2017-11-28T12:37:06.060Z,99649.53
2017-11-28T12:39:32.682Z,99651.93
2017-11-28T12:41:59.337Z,99641.71
2017-11-28T12:44:25.965Z,99652.13
2017-11-28T12:46:52.615Z,99649.96
2017-11-28T12:49:19.102Z,99653.04
2017-11-28T12:51:45.687Z,99655.48
2017-11-28T12:54:12.309Z,99659.23
2017-11-28T12:56:38.827Z,99665.67
2017-11-28T12:59:05.268Z,99657.89
2017-11-28T13:01:31.683Z,99664.56
2017-11-28T13:03:58.118Z,99661.23
2017-11-28T13:06:24.543Z,99659.95
2017-11-28T13:08:50.927Z,99665.90
2017-11-28T13:11:17.199Z,99672.03
2017-11-28T13:13:43.643Z,99673.42
2017-11-28T13:16:10.085Z,99675.41
2017-11-28T13:18:36.504Z,99675.41
2017-11-28T13:21:03.290Z,99669.72
2017-11-28T13:23:29.914Z,99672.53
2017-11-28T13:25:56.370Z,99673.92
2017-11-28T13:28:23.006Z,99663.64
2017-11-28T13:30:49.313Z,99670.06
2017-11-28T13:33:15.725Z,99683.61
2017-11-28T13:35:42.173Z,99678.67
2017-11-28T13:38:08.613Z,99678.09
2017-11-28T13:40:35.127Z,99681.33
2017-11-28T13:43:01.565Z,99682.59
2017-11-28T13:45:28.011Z,99683.92
2017-11-28T13:47:54.526Z,99682.35
2017-11-28T13:50:20.969Z,99680.58
2017-11-28T13:52:47.547Z,99683.45
2017-11-28T13:55:14.161Z,99690.52
2017-11-28T13:57:40.411Z,99683.96
2017-11-28T14:00:06.926Z,99684.14
2017-11-28T14:02:33.266Z,99681.17
2017-11-28T14:04:59.891Z,99693.70
2017-11-28T14:07:26.334Z,99697.01
2017-11-28T14:09:52.991Z,99693.28
2017-11-28T14:12:19.616Z,99691.98
2017-11-28T14:14:46.265Z,99695.98
2017-11-28T14:17:12.749Z,99696.22
2017-11-28T14:19:39.194Z,99696.87
2017-11-28T14:22:05.638Z,99694.29
2017-11-28T14:24:32.153Z,99691.05
2017-11-28T14:26:58.592Z,99686.23
2017-11-28T14:29:25.036Z,99690.47
2017-11-28T14:31:51.325Z,99688.37
2017-11-28T14:34:17.918Z,99689.00
2017-11-28T14:36:44.340Z,99691.34
2017-11-28T14:39:11.007Z,99691.84
2017-11-28T14:41:37.371Z,99693.99
2017-11-28T14:44:03.807Z,99697.64
2017-11-28T14:46:30.113Z,99701.77
2017-11-28T14:48:56.720Z,99702.34
2017-11-28T14:51:23.180Z,99682.05
2017-11-28T14:53:49.826Z,99697.63
2017-11-28T14:56:16.440Z,99698.23
2017-11-28T14:58:43.093Z,99701.23
2017-11-28T15:01:09.726Z,99705.72
2017-11-28T15:03:36.369Z,99704.52
2017-11-28T15:06:02.986Z,99705.89
2017-11-28T15:08:29.508Z,99706.83
2017-11-28T15:10:56.082Z,99701.49
2017-11-28T15:13:22.757Z,99705.09
2017-11-28T15:15:49.226Z,99705.16
2017-11-28T15:18:15.622Z,99706.80
2017-11-28T15:20:42.206Z,99702.81
2017-11-28T15:23:08.671Z,99707.30
2017-11-28T15:25:35.106Z,99706.11
2017-11-28T15:28:01.727Z,99703.05
2017-11-28T15:30:28.352Z,99708.92
2017-11-28T15:32:54.595Z,99713.73
2017-11-28T15:35:21.088Z,99716.61
2017-11-28T15:37:47.529Z,99723.56
2017-11-28T15:40:13.948Z,99722.62
2017-11-28T15:42:40.328Z,99718.34
2017-11-28T15:45:06.856Z,99716.89
2017-11-28T15:47:33.205Z,99721.73
2017-11-28T15:49:59.650Z,99714.33
2017-11-28T15:52:25.956Z,99717.73
2017-11-28T15:54:52.349Z,99718.47
2017-11-28T15:57:18.931Z,99721.59
2017-11-28T15:59:45.560Z,99725.61
2017-11-28T16:02:11.967Z,99722.12
2017-11-28T16:04:38.415Z,99724.63
2017-11-28T16:07:05.074Z,99723.61
2017-11-28T16:09:31.695Z,99729.47
2017-11-28T16:11:58.352Z,99738.67
2017-11-28T16:14:24.779Z,99731.84
2017-11-28T16:16:51.279Z,99734.24
2017-11-28T16:19:17.715Z,99739.50
2017-11-28T16:21:44.230Z,99732.32
2017-11-28T16:24:10.669Z,99730.90
2017-11-28T16:26:37.138Z,99735.80
2017-11-28T16:29:03.581Z,99736.34
2017-11-28T16:31:30.198Z,99731.91
2017-11-28T16:33:56.456Z,99735.08
2017-11-28T16:36:22.752Z,99732.73
2017-11-28T16:38:49.185Z,99729.79
2017-11-28T16:41:15.614Z,99730.61
2017-11-28T16:43:42.052Z,99732.50
2017-11-28T16:46:08.475Z,99737.16
2017-11-28T16:48:34.917Z,99735.20
2017-11-28T16:51:01.305Z,99736.11
2017-11-28T16:53:27.953Z,99732.70
2017-11-28T16:55:54.374Z,99734.24
2017-11-28T16:58:20.980Z,99733.42
2017-11-28T17:00:47.547Z,99736.11
2017-11-28T17:03:13.808Z,99739.66
2017-11-28T17:05:40.358Z,99740.70
2017-11-28T17:08:06.728Z,99743.48
2017-11-28T17:10:33.342Z,99745.31
2017-11-28T17:12:59.782Z,99750.22
2017-11-28T17:15:26.235Z,99747.31
2017-11-28T17:17:52.881Z,99740.98
2017-11-28T17:20:19.300Z,99745.73
2017-11-28T17:22:45.925Z,99747.44
2017-11-28T17:25:12.363Z,99744.05
2017-11-28T17:27:39.022Z,99741.97
2017-11-28T17:30:05.624Z,99744.47
2017-11-28T17:32:32.066Z,99749.19
2017-11-28T17:34:58.727Z,99754.22
2017-11-28T17:37:25.226Z,99760.53
2017-11-28T17:39:51.738Z,99760.19
2017-11-28T17:42:18.409Z,99757.36
2017-11-28T17:44:44.824Z,99759.64
2017-11-28T17:47:11.097Z,99757.78
2017-11-28T17:49:37.710Z,99759.11
2017-11-28T17:52:03.964Z,99756.96
2017-11-28T17:54:30.411Z,99755.76
2017-11-28T17:56:56.884Z,99759.81
2017-11-28T17:59:23.325Z,99758.70
2017-11-28T18:01:49.761Z,99763.29
2017-11-28T18:04:16.447Z,99765.37
2017-11-28T18:06:42.949Z,99768.51
2017-11-28T18:09:09.366Z,99767.02
2017-11-28T18:11:35.633Z,99767.78
2017-11-28T18:14:02.120Z,99770.00
2017-11-28T18:16:28.567Z,99766.89
2017-11-28T18:18:55.085Z,99762.78
2017-11-28T18:21:21.520Z,99761.17
2017-11-28T18:23:47.807Z,99763.80
2017-11-28T18:26:14.237Z,99760.48
2017-11-28T18:28:40.870Z,99765.66
2017-11-28T18:31:07.285Z,99760.16
2017-11-28T18:33:33.784Z,99765.48
2017-11-28T18:36:00.162Z,99757.41
2017-11-28T18:38:26.611Z,99762.22
2017-11-28T18:40:53.245Z,99767.28
2017-11-28T18:43:19.477Z,99762.70
2017-11-28T18:45:46.112Z,99768.29
2017-11-28T18:48:12.734Z,99778.41
2017-11-28T18:50:38.983Z,99771.27
2017-11-28T18:53:05.291Z,99774.32
2017-11-28T18:55:31.635Z,99768.19
2017-11-28T18:57:58.250Z,99766.30
2017-11-28T19:00:24.664Z,99770.16
2017-11-28T19:02:51.110Z,99762.43
2017-11-28T19:05:17.539Z,99766.58
2017-11-28T19:07:43.828Z,99767.81
2017-11-28T19:10:10.233Z,99766.09
2017-11-28T19:12:36.880Z,99748.64
2017-11-28T19:15:03.494Z,99763.51
2017-11-28T19:17:29.768Z,99764.36
2017-11-28T19:19:56.122Z,99766.58
2017-11-28T19:22:22.410Z,99763.64
2017-11-28T19:24:49.043Z,99766.61
2017-11-28T19:27:15.550Z,99766.61
2017-11-28T19:29:42.066Z,99768.66
2017-11-28T19:32:08.711Z,99769.02
2017-11-28T19:34:34.931Z,99765.95
2017-11-28T19:37:01.364Z,99769.11
2017-11-28T19:39:27.835Z,99773.53
2017-11-28T19:41:54.076Z,99774.77
2017-11-28T19:44:20.695Z,99776.80
2017-11-28T19:46:46.945Z,99774.02
2017-11-28T19:49:13.479Z,99769.52
2017-11-28T19:51:39.968Z,99774.27
2017-11-28T19:54:06.246Z,99772.40
2017-11-28T19:56:32.851Z,99775.16
2017-11-28T19:58:59.268Z,99769.11
2017-11-28T20:01:25.735Z,99773.25
2017-11-28T20:03:52.395Z,99772.24
2017-11-28T20:06:19.016Z,99773.22
2017-11-28T20:08:45.263Z,99773.25
2017-11-28T20:11:11.717Z,99776.39
2017-11-28T20:13:38.231Z,99772.94
2017-11-28T20:16:04.709Z,99778.06
2017-11-28T20:18:31.151Z,99769.33
2017-11-28T20:20:57.492Z,99775.28
2017-11-28T20:23:24.012Z,99771.30
2017-11-28T20:25:50.700Z,99769.52
2017-11-28T20:28:17.337Z,99777.30
2017-11-28T20:30:43.561Z,99781.51
2017-11-28T20:33:10.053Z,99763.83
2017-11-28T20:35:36.644Z,99781.89
2017-11-28T20:38:03.262Z,99775.34
2017-11-28T20:40:29.918Z,99778.26
2017-11-28T20:42:56.423Z,99781.33
2017-11-28T20:45:22.937Z,99777.22
2017-11-28T20:47:49.407Z,99774.02
2017-11-28T20:50:16.064Z,99776.70
2017-11-28T20:52:42.513Z,99776.92
2017-11-28T20:55:08.817Z,99779.26
2017-11-28T20:57:35.169Z,99781.21
2017-11-28T21:00:03.434Z,99780.80
2017-11-28T21:02:32.147Z,99785.28
2017-11-28T21:05:00.771Z,99780.25
2017-11-28T21:07:29.208Z,99783.82
2017-11-28T21:09:58.865Z,99787.23
2017-11-28T21:12:25.653Z,99788.73
2017-11-28T21:14:52.259Z,99784.78
2017-11-28T21:17:18.510Z,99786.71
2017-11-28T21:19:44.940Z,99787.08
2017-11-28T21:22:11.562Z,99777.40
2017-11-28T21:24:38.220Z,99784.33
2017-11-28T21:27:04.650Z,99785.48
2017-11-28T21:29:31.264Z,99783.23
2017-11-28T21:31:57.516Z,99783.96
2017-11-28T21:34:24.161Z,99791.74
2017-11-28T21:36:50.690Z,99789.59
2017-11-28T21:39:17.022Z,99786.38
2017-11-28T21:41:43.522Z,99786.27
2017-11-28T21:44:09.736Z,99792.99
2017-11-28T21:46:36.320Z,99783.61
2017-11-28T21:49:02.768Z,99782.67
2017-11-28T21:51:29.391Z,99782.50
2017-11-28T21:53:56.005Z,99786.90
2017-11-28T21:56:22.342Z,99787.50
2017-11-28T21:58:48.893Z,99785.98
2017-11-28T22:01:15.555Z,99782.80
2017-11-28T22:03:41.997Z,99781.16
2017-11-28T22:06:08.606Z,99776.86
2017-11-28T22:08:35.045Z,99777.20
2017-11-28T22:11:01.677Z,99777.98
2017-11-28T22:13:28.292Z,99774.94
2017-11-28T22:15:54.955Z,99779.19
2017-11-28T22:18:21.571Z,99773.60
2017-11-28T22:20:47.983Z,99775.18
2017-11-28T22:23:14.255Z,99768.72
2017-11-28T22:25:40.892Z,99772.44
2017-11-28T22:28:07.324Z,99769.35
2017-11-28T22:30:33.762Z,99771.52
2017-11-28T22:33:00.373Z,99777.38
2017-11-28T22:35:26.789Z,99780.25
2017-11-28T22:37:53.235Z,99782.03
2017-11-28T22:40:19.697Z,99782.86
2017-11-28T22:42:46.212Z,99788.84
2017-11-28T22:45:12.732Z,99786.64
2017-11-28T22:47:39.408Z,99789.06
2017-11-28T22:50:05.851Z,99788.98
2017-11-28T22:52:32.456Z,99791.16
2017-11-28T22:54:59.119Z,99791.19
2017-11-28T22:57:25.614Z,99787.03
2017-11-28T22:59:52.057Z,99791.86
2017-11-28T23:02:18.422Z,99787.47
2017-11-28T23:04:44.898Z,99786.33
2017-11-28T23:07:11.381Z,99782.53
2017-11-28T23:09:37.874Z,99782.36
2017-11-28T23:12:04.335Z,99774.55
2017-11-28T23:14:30.790Z,99778.56
2017-11-28T23:16:57.423Z,99787.83
2017-11-28T23:19:23.918Z,99781.53
2017-11-28T23:21:50.357Z,99780.55
2017-11-28T23:24:16.912Z,99778.83
2017-11-28T23:26:43.340Z,99777.44
2017-11-28T23:29:09.781Z,99768.52
2017-11-28T23:31:36.440Z,99771.34
2017-11-28T23:34:02.941Z,99770.19
2017-11-28T23:36:29.376Z,99774.23
2017-11-28T23:38:55.898Z,99783.16
2017-11-28T23:41:22.343Z,99775.98
2017-11-28T23:43:48.789Z,99779.13
2017-11-28T23:46:15.476Z,99777.46
2017-11-28T23:48:42.088Z,99782.42
2017-11-28T23:51:08.722Z,99786.63
2017-11-28T23:53:35.351Z,99788.01
2017-11-28T23:56:01.989Z,99783.38
2017-11-28T23:58:28.639Z,99784.12
